sensor_id;sensor_type;location;lat;lon;timestamp;temperature;humidity
16964;DHT22;8598;50.508;10.436;2023-04-16T00:00:12;8.40;99.90
16964;DHT22;8598;50.508;10.436;2023-04-16T00:02:38;8.40;99.90
16964;DHT22;8598;50.508;10.436;2023-04-16T00:05:06;8.40;99.90
16964;DHT22;8598;50.508;10.436;2023-04-16T00:07:32;8.40;99.90
16964;DHT22;8598;50.508;10.436;2023-04-16T00:09:59;8.40;99.90
16964;DHT22;8598;50.508;10.436;2023-04-16T00:12:27;8.40;99.90
16964;DHT22;8598;50.508;10.436;2023-04-16T00:14:53;8.50;99.90
16964;DHT22;8598;50.508;10.436;2023-04-16T00:17:20;8.50;99.90
16964;DHT22;8598;50.508;10.436;2023-04-16T00:19:47;8.50;99.90
16964;DHT22;8598;50.508;10.436;2023-04-16T00:22:13;8.50;99.90
16964;DHT22;8598;50.508;10.436;2023-04-16T00:24:40;8.50;99.90
16964;DHT22;8598;50.508;10.436;2023-04-16T00:27:07;8.50;99.90
16964;DHT22;8598;50.508;10.436;2023-04-16T00:29:35;8.50;99.90
16964;DHT22;8598;50.508;10.436;2023-04-16T00:32:01;8.50;99.90
16964;DHT22;8598;50.508;10.436;2023-04-16T00:34:28;8.50;99.90
16964;DHT22;8598;50.508;10.436;2023-04-16T00:36:55;8.60;99.90
16964;DHT22;8598;50.508;10.436;2023-04-16T00:39:21;8.60;99.90
16964;DHT22;8598;50.508;10.436;2023-04-16T00:41:48;8.60;99.90
16964;DHT22;8598;50.508;10.436;2023-04-16T00:44:14;8.60;99.90
16964;DHT22;8598;50.508;10.436;2023-04-16T00:46:43;8.60;99.90
16964;DHT22;8598;50.508;10.436;2023-04-16T00:49:11;8.60;99.90
16964;DHT22;8598;50.508;10.436;2023-04-16T00:51:37;8.60;99.90
16964;DHT22;8598;50.508;10.436;2023-04-16T00:54:05;8.60;99.90
16964;DHT22;8598;50.508;10.436;2023-04-16T00:56:33;8.60;99.90
16964;DHT22;8598;50.508;10.436;2023-04-16T00:59:01;8.60;99.90
16964;DHT22;8598;50.508;10.436;2023-04-16T01:01:27;8.60;99.90
16964;DHT22;8598;50.508;10.436;2023-04-16T01:03:55;8.60;99.90
16964;DHT22;8598;50.508;10.436;2023-04-16T01:06:22;8.60;99.90
16964;DHT22;8598;50.508;10.436;2023-04-16T01:08:49;8.70;99.90
16964;DHT22;8598;50.508;10.436;2023-04-16T01:11:15;8.70;99.90
16964;DHT22;8598;50.508;10.436;2023-04-16T01:13:42;8.70;99.90
16964;DHT22;8598;50.508;10.436;2023-04-16T01:16:10;8.70;99.90
16964;DHT22;8598;50.508;10.436;2023-04-16T01:18:37;8.70;99.90
16964;DHT22;8598;50.508;10.436;2023-04-16T01:21:05;8.70;99.90
16964;DHT22;8598;50.508;10.436;2023-04-16T01:23:32;8.60;99.90
16964;DHT22;8598;50.508;10.436;2023-04-16T01:25:59;8.70;99.90
16964;DHT22;8598;50.508;10.436;2023-04-16T01:28:26;8.60;99.90
16964;DHT22;8598;50.508;10.436;2023-04-16T01:30:52;8.60;99.90
16964;DHT22;8598;50.508;10.436;2023-04-16T01:33:20;8.70;99.90
16964;DHT22;8598;50.508;10.436;2023-04-16T01:35:46;8.60;99.90
16964;DHT22;8598;50.508;10.436;2023-04-16T01:38:14;8.60;99.90
16964;DHT22;8598;50.508;10.436;2023-04-16T01:40:41;8.70;99.90
16964;DHT22;8598;50.508;10.436;2023-04-16T01:43:08;8.70;99.90
16964;DHT22;8598;50.508;10.436;2023-04-16T01:45:34;8.60;99.90
16964;DHT22;8598;50.508;10.436;2023-04-16T01:48:02;8.60;99.90
16964;DHT22;8598;50.508;10.436;2023-04-16T01:50:29;8.60;99.90
16964;DHT22;8598;50.508;10.436;2023-04-16T01:52:56;8.60;99.90
16964;DHT22;8598;50.508;10.436;2023-04-16T01:55:24;8.60;99.90
16964;DHT22;8598;50.508;10.436;2023-04-16T01:57:51;8.60;99.90
16964;DHT22;8598;50.508;10.436;2023-04-16T02:00:17;8.70;99.90
16964;DHT22;8598;50.508;10.436;2023-04-16T02:02:44;8.60;99.90
16964;DHT22;8598;50.508;10.436;2023-04-16T02:05:11;8.60;99.90
16964;DHT22;8598;50.508;10.436;2023-04-16T02:07:37;8.60;99.90
16964;DHT22;8598;50.508;10.436;2023-04-16T02:10:05;8.60;99.90
16964;DHT22;8598;50.508;10.436;2023-04-16T02:12:34;8.60;99.90
16964;DHT22;8598;50.508;10.436;2023-04-16T02:15:01;8.60;99.90
16964;DHT22;8598;50.508;10.436;2023-04-16T02:17:28;8.60;99.90
16964;DHT22;8598;50.508;10.436;2023-04-16T02:19:55;8.60;99.90
16964;DHT22;8598;50.508;10.436;2023-04-16T02:22:21;8.60;99.90
16964;DHT22;8598;50.508;10.436;2023-04-16T02:24:48;8.60;99.90
16964;DHT22;8598;50.508;10.436;2023-04-16T02:27:15;8.60;99.90
16964;DHT22;8598;50.508;10.436;2023-04-16T02:29:43;8.60;99.90
16964;DHT22;8598;50.508;10.436;2023-04-16T02:32:10;8.60;99.90
16964;DHT22;8598;50.508;10.436;2023-04-16T02:34:36;8.60;99.90
16964;DHT22;8598;50.508;10.436;2023-04-16T02:37:04;8.60;99.90
16964;DHT22;8598;50.508;10.436;2023-04-16T02:39:31;8.60;99.90
16964;DHT22;8598;50.508;10.436;2023-04-16T02:41:57;8.60;99.90
16964;DHT22;8598;50.508;10.436;2023-04-16T02:44:25;8.60;99.90
16964;DHT22;8598;50.508;10.436;2023-04-16T02:46:53;8.60;99.90
16964;DHT22;8598;50.508;10.436;2023-04-16T02:49:20;8.60;99.90
16964;DHT22;8598;50.508;10.436;2023-04-16T02:51:47;8.60;99.90
16964;DHT22;8598;50.508;10.436;2023-04-16T02:54:13;8.60;99.90
16964;DHT22;8598;50.508;10.436;2023-04-16T02:56:40;8.60;99.90
16964;DHT22;8598;50.508;10.436;2023-04-16T02:59:06;8.60;99.90
16964;DHT22;8598;50.508;10.436;2023-04-16T03:01:33;8.60;99.90
16964;DHT22;8598;50.508;10.436;2023-04-16T03:04:01;8.60;99.90
16964;DHT22;8598;50.508;10.436;2023-04-16T03:06:28;8.60;99.90
16964;DHT22;8598;50.508;10.436;2023-04-16T03:08:55;8.60;99.90
16964;DHT22;8598;50.508;10.436;2023-04-16T03:11:22;8.50;99.90
16964;DHT22;8598;50.508;10.436;2023-04-16T03:13:49;8.50;99.90
16964;DHT22;8598;50.508;10.436;2023-04-16T03:16:15;8.50;99.90
16964;DHT22;8598;50.508;10.436;2023-04-16T03:18:42;8.50;99.90
16964;DHT22;8598;50.508;10.436;2023-04-16T03:21:10;8.50;99.90
16964;DHT22;8598;50.508;10.436;2023-04-16T03:23:36;8.60;99.90
16964;DHT22;8598;50.508;10.436;2023-04-16T03:26:03;8.60;99.90
16964;DHT22;8598;50.508;10.436;2023-04-16T03:28:30;8.60;99.90
16964;DHT22;8598;50.508;10.436;2023-04-16T03:30:57;8.60;99.90
16964;DHT22;8598;50.508;10.436;2023-04-16T03:33:24;8.60;99.90
16964;DHT22;8598;50.508;10.436;2023-04-16T03:35:56;8.60;99.90
16964;DHT22;8598;50.508;10.436;2023-04-16T03:38:24;8.60;99.90
16964;DHT22;8598;50.508;10.436;2023-04-16T03:40:51;8.60;99.90
16964;DHT22;8598;50.508;10.436;2023-04-16T03:43:18;8.60;99.90
16964;DHT22;8598;50.508;10.436;2023-04-16T03:45:44;8.60;99.90
16964;DHT22;8598;50.508;10.436;2023-04-16T03:48:11;8.50;99.90
16964;DHT22;8598;50.508;10.436;2023-04-16T03:50:38;8.50;99.90
16964;DHT22;8598;50.508;10.436;2023-04-16T03:53:04;8.50;99.90
16964;DHT22;8598;50.508;10.436;2023-04-16T03:55:33;8.50;99.90
16964;DHT22;8598;50.508;10.436;2023-04-16T03:58:00;8.50;99.90
16964;DHT22;8598;50.508;10.436;2023-04-16T04:00:27;8.50;99.90
16964;DHT22;8598;50.508;10.436;2023-04-16T04:02:54;8.50;99.90
16964;DHT22;8598;50.508;10.436;2023-04-16T04:05:21;8.50;99.90
16964;DHT22;8598;50.508;10.436;2023-04-16T04:07:47;8.50;99.90
16964;DHT22;8598;50.508;10.436;2023-04-16T04:10:14;8.50;99.90
16964;DHT22;8598;50.508;10.436;2023-04-16T04:12:43;8.50;99.90
16964;DHT22;8598;50.508;10.436;2023-04-16T04:15:10;8.50;99.90
16964;DHT22;8598;50.508;10.436;2023-04-16T04:17:37;8.50;99.90
16964;DHT22;8598;50.508;10.436;2023-04-16T04:20:04;8.50;99.90
16964;DHT22;8598;50.508;10.436;2023-04-16T04:22:31;8.50;99.90
16964;DHT22;8598;50.508;10.436;2023-04-16T04:24:58;8.50;99.90
16964;DHT22;8598;50.508;10.436;2023-04-16T04:27:25;8.50;99.90
16964;DHT22;8598;50.508;10.436;2023-04-16T04:29:52;8.50;99.90
16964;DHT22;8598;50.508;10.436;2023-04-16T04:32:19;8.40;99.90
16964;DHT22;8598;50.508;10.436;2023-04-16T04:34:46;8.50;99.90
16964;DHT22;8598;50.508;10.436;2023-04-16T04:37:12;8.50;99.90
16964;DHT22;8598;50.508;10.436;2023-04-16T04:39:39;8.50;99.90
16964;DHT22;8598;50.508;10.436;2023-04-16T04:42:06;8.40;99.90
16964;DHT22;8598;50.508;10.436;2023-04-16T04:44:32;8.50;99.90
16964;DHT22;8598;50.508;10.436;2023-04-16T04:47:00;8.50;99.90
16964;DHT22;8598;50.508;10.436;2023-04-16T04:49:27;8.40;99.90
16964;DHT22;8598;50.508;10.436;2023-04-16T04:51:54;8.40;99.90
16964;DHT22;8598;50.508;10.436;2023-04-16T04:54:21;8.50;99.90
16964;DHT22;8598;50.508;10.436;2023-04-16T04:56:48;8.50;99.90
16964;DHT22;8598;50.508;10.436;2023-04-16T04:59:16;8.50;99.90
16964;DHT22;8598;50.508;10.436;2023-04-16T05:01:43;8.50;99.90
16964;DHT22;8598;50.508;10.436;2023-04-16T05:04:11;8.50;99.90
16964;DHT22;8598;50.508;10.436;2023-04-16T05:06:37;8.50;99.90
16964;DHT22;8598;50.508;10.436;2023-04-16T05:09:04;8.50;99.90
16964;DHT22;8598;50.508;10.436;2023-04-16T05:11:35;8.50;99.90
16964;DHT22;8598;50.508;10.436;2023-04-16T05:14:02;8.50;99.90
16964;DHT22;8598;50.508;10.436;2023-04-16T05:16:29;8.50;99.90
16964;DHT22;8598;50.508;10.436;2023-04-16T05:18:55;8.50;99.90
16964;DHT22;8598;50.508;10.436;2023-04-16T05:21:23;8.40;99.90
16964;DHT22;8598;50.508;10.436;2023-04-16T05:23:50;8.50;99.90
16964;DHT22;8598;50.508;10.436;2023-04-16T05:26:17;8.40;99.90
16964;DHT22;8598;50.508;10.436;2023-04-16T05:28:43;8.40;99.90
16964;DHT22;8598;50.508;10.436;2023-04-16T05:31:10;8.40;99.90
16964;DHT22;8598;50.508;10.436;2023-04-16T05:33:37;8.50;99.90
16964;DHT22;8598;50.508;10.436;2023-04-16T05:36:04;8.50;99.90
16964;DHT22;8598;50.508;10.436;2023-04-16T05:38:32;8.50;99.90
16964;DHT22;8598;50.508;10.436;2023-04-16T05:40:58;8.40;99.90
16964;DHT22;8598;50.508;10.436;2023-04-16T05:43:25;8.50;99.90
16964;DHT22;8598;50.508;10.436;2023-04-16T05:45:51;8.50;99.90
16964;DHT22;8598;50.508;10.436;2023-04-16T05:48:18;8.50;99.90
16964;DHT22;8598;50.508;10.436;2023-04-16T05:50:45;8.50;99.90
16964;DHT22;8598;50.508;10.436;2023-04-16T05:53:12;8.50;99.90
16964;DHT22;8598;50.508;10.436;2023-04-16T05:55:40;8.50;99.90
16964;DHT22;8598;50.508;10.436;2023-04-16T05:58:07;8.40;99.90
16964;DHT22;8598;50.508;10.436;2023-04-16T06:00:34;8.40;99.90
16964;DHT22;8598;50.508;10.436;2023-04-16T06:03:01;8.40;99.90
16964;DHT22;8598;50.508;10.436;2023-04-16T06:05:28;8.40;99.90
16964;DHT22;8598;50.508;10.436;2023-04-16T06:07:55;8.40;99.90
16964;DHT22;8598;50.508;10.436;2023-04-16T06:10:22;8.40;99.90
16964;DHT22;8598;50.508;10.436;2023-04-16T06:12:49;8.40;99.90
16964;DHT22;8598;50.508;10.436;2023-04-16T06:15:16;8.40;99.90
16964;DHT22;8598;50.508;10.436;2023-04-16T06:17:43;8.40;99.90
16964;DHT22;8598;50.508;10.436;2023-04-16T06:20:11;8.40;99.90
16964;DHT22;8598;50.508;10.436;2023-04-16T06:22:38;8.40;99.90
16964;DHT22;8598;50.508;10.436;2023-04-16T06:25:05;8.40;99.90
16964;DHT22;8598;50.508;10.436;2023-04-16T06:27:32;8.50;99.90
16964;DHT22;8598;50.508;10.436;2023-04-16T06:30:00;8.50;99.90
16964;DHT22;8598;50.508;10.436;2023-04-16T06:32:26;8.50;99.90
16964;DHT22;8598;50.508;10.436;2023-04-16T06:34:53;8.50;99.90
16964;DHT22;8598;50.508;10.436;2023-04-16T06:37:20;8.50;99.90
16964;DHT22;8598;50.508;10.436;2023-04-16T06:39:47;8.60;99.90
16964;DHT22;8598;50.508;10.436;2023-04-16T06:42:13;8.60;99.90
16964;DHT22;8598;50.508;10.436;2023-04-16T06:44:40;8.60;99.90
16964;DHT22;8598;50.508;10.436;2023-04-16T06:47:08;8.60;99.90
16964;DHT22;8598;50.508;10.436;2023-04-16T06:49:35;8.60;99.90
16964;DHT22;8598;50.508;10.436;2023-04-16T06:52:01;8.60;99.90
16964;DHT22;8598;50.508;10.436;2023-04-16T06:54:28;8.60;99.90
16964;DHT22;8598;50.508;10.436;2023-04-16T06:56:55;8.60;99.90
16964;DHT22;8598;50.508;10.436;2023-04-16T06:59:22;8.70;99.90
16964;DHT22;8598;50.508;10.436;2023-04-16T07:01:48;8.70;99.90
16964;DHT22;8598;50.508;10.436;2023-04-16T07:04:16;8.70;99.90
16964;DHT22;8598;50.508;10.436;2023-04-16T07:06:43;8.70;99.90
16964;DHT22;8598;50.508;10.436;2023-04-16T07:09:10;8.80;99.90
16964;DHT22;8598;50.508;10.436;2023-04-16T07:11:37;8.80;99.90
16964;DHT22;8598;50.508;10.436;2023-04-16T07:14:04;8.80;99.90
16964;DHT22;8598;50.508;10.436;2023-04-16T07:16:30;8.90;99.90
16964;DHT22;8598;50.508;10.436;2023-04-16T07:18:57;9.00;99.90
16964;DHT22;8598;50.508;10.436;2023-04-16T07:21:25;9.00;99.90
16964;DHT22;8598;50.508;10.436;2023-04-16T07:23:52;9.10;99.90
16964;DHT22;8598;50.508;10.436;2023-04-16T07:26:18;9.10;99.90
16964;DHT22;8598;50.508;10.436;2023-04-16T07:28:45;9.10;99.90
16964;DHT22;8598;50.508;10.436;2023-04-16T07:31:11;9.20;99.90
16964;DHT22;8598;50.508;10.436;2023-04-16T07:33:38;9.10;99.90
16964;DHT22;8598;50.508;10.436;2023-04-16T07:36:05;9.10;99.90
16964;DHT22;8598;50.508;10.436;2023-04-16T07:38:33;9.10;99.90
16964;DHT22;8598;50.508;10.436;2023-04-16T07:41:00;9.20;99.90
16964;DHT22;8598;50.508;10.436;2023-04-16T07:43:26;9.20;99.90
16964;DHT22;8598;50.508;10.436;2023-04-16T07:45:53;9.20;99.90
16964;DHT22;8598;50.508;10.436;2023-04-16T07:48:20;9.30;99.90
16964;DHT22;8598;50.508;10.436;2023-04-16T07:50:47;9.30;99.90
16964;DHT22;8598;50.508;10.436;2023-04-16T07:53:14;9.20;99.90
16964;DHT22;8598;50.508;10.436;2023-04-16T07:55:42;9.30;99.90
16964;DHT22;8598;50.508;10.436;2023-04-16T07:58:09;9.30;99.90
16964;DHT22;8598;50.508;10.436;2023-04-16T08:00:35;9.30;99.90
16964;DHT22;8598;50.508;10.436;2023-04-16T08:03:03;9.40;99.90
16964;DHT22;8598;50.508;10.436;2023-04-16T08:05:29;9.40;99.90
16964;DHT22;8598;50.508;10.436;2023-04-16T08:07:56;9.50;99.90
16964;DHT22;8598;50.508;10.436;2023-04-16T08:10:22;9.50;99.90
16964;DHT22;8598;50.508;10.436;2023-04-16T08:12:50;9.40;99.90
16964;DHT22;8598;50.508;10.436;2023-04-16T08:15:17;9.30;99.90
16964;DHT22;8598;50.508;10.436;2023-04-16T08:17:44;9.30;99.90
16964;DHT22;8598;50.508;10.436;2023-04-16T08:20:10;9.30;99.90
16964;DHT22;8598;50.508;10.436;2023-04-16T08:22:37;9.40;99.90
16964;DHT22;8598;50.508;10.436;2023-04-16T08:25:04;9.30;99.90
16964;DHT22;8598;50.508;10.436;2023-04-16T08:27:31;9.30;99.90
16964;DHT22;8598;50.508;10.436;2023-04-16T08:29:59;9.40;99.90
16964;DHT22;8598;50.508;10.436;2023-04-16T08:32:26;9.40;99.90
16964;DHT22;8598;50.508;10.436;2023-04-16T08:34:52;9.50;99.90
16964;DHT22;8598;50.508;10.436;2023-04-16T08:37:19;9.60;99.90
16964;DHT22;8598;50.508;10.436;2023-04-16T08:39:45;9.70;99.90
16964;DHT22;8598;50.508;10.436;2023-04-16T08:42:17;9.70;99.90
16964;DHT22;8598;50.508;10.436;2023-04-16T08:44:47;9.60;99.90
16964;DHT22;8598;50.508;10.436;2023-04-16T08:47:16;9.80;99.90
16964;DHT22;8598;50.508;10.436;2023-04-16T08:49:43;9.80;99.90
16964;DHT22;8598;50.508;10.436;2023-04-16T08:52:14;9.70;99.90
16964;DHT22;8598;50.508;10.436;2023-04-16T08:54:46;9.80;99.90
16964;DHT22;8598;50.508;10.436;2023-04-16T08:57:18;9.60;99.90
16964;DHT22;8598;50.508;10.436;2023-04-16T08:59:45;9.60;99.90
16964;DHT22;8598;50.508;10.436;2023-04-16T09:02:12;9.60;99.90
16964;DHT22;8598;50.508;10.436;2023-04-16T09:04:40;9.60;99.90
16964;DHT22;8598;50.508;10.436;2023-04-16T09:07:07;9.60;99.90
16964;DHT22;8598;50.508;10.436;2023-04-16T09:09:34;9.80;99.90
16964;DHT22;8598;50.508;10.436;2023-04-16T09:12:03;9.90;99.90
16964;DHT22;8598;50.508;10.436;2023-04-16T09:14:30;9.90;99.90
16964;DHT22;8598;50.508;10.436;2023-04-16T09:16:57;10.10;99.90
16964;DHT22;8598;50.508;10.436;2023-04-16T09:19:25;10.00;99.90
16964;DHT22;8598;50.508;10.436;2023-04-16T09:21:53;10.10;99.90
16964;DHT22;8598;50.508;10.436;2023-04-16T09:24:20;10.00;99.90
16964;DHT22;8598;50.508;10.436;2023-04-16T09:26:47;10.00;99.90
16964;DHT22;8598;50.508;10.436;2023-04-16T09:29:32;10.00;99.90
16964;DHT22;8598;50.508;10.436;2023-04-16T09:32:01;10.10;99.90
16964;DHT22;8598;50.508;10.436;2023-04-16T09:34:28;10.20;99.90
16964;DHT22;8598;50.508;10.436;2023-04-16T09:37:13;10.10;99.90
16964;DHT22;8598;50.508;10.436;2023-04-16T09:39:41;10.30;99.90
16964;DHT22;8598;50.508;10.436;2023-04-16T09:42:07;10.20;99.90
16964;DHT22;8598;50.508;10.436;2023-04-16T09:44:34;10.20;99.90
16964;DHT22;8598;50.508;10.436;2023-04-16T09:47:05;10.30;99.90
16964;DHT22;8598;50.508;10.436;2023-04-16T09:49:33;10.50;99.90
16964;DHT22;8598;50.508;10.436;2023-04-16T09:52:03;10.20;99.90
16964;DHT22;8598;50.508;10.436;2023-04-16T09:54:34;10.10;99.90
16964;DHT22;8598;50.508;10.436;2023-04-16T09:57:01;10.10;99.90
16964;DHT22;8598;50.508;10.436;2023-04-16T09:59:28;10.30;99.90
16964;DHT22;8598;50.508;10.436;2023-04-16T10:01:59;10.20;99.90
16964;DHT22;8598;50.508;10.436;2023-04-16T10:04:26;10.20;99.90
16964;DHT22;8598;50.508;10.436;2023-04-16T10:07:03;10.00;99.90
16964;DHT22;8598;50.508;10.436;2023-04-16T10:09:31;10.10;99.90
16964;DHT22;8598;50.508;10.436;2023-04-16T10:11:58;10.00;99.90
16964;DHT22;8598;50.508;10.436;2023-04-16T10:14:25;10.00;99.90
16964;DHT22;8598;50.508;10.436;2023-04-16T10:16:51;9.90;99.90
16964;DHT22;8598;50.508;10.436;2023-04-16T10:19:19;9.90;99.90
16964;DHT22;8598;50.508;10.436;2023-04-16T10:21:46;10.00;99.90
16964;DHT22;8598;50.508;10.436;2023-04-16T10:24:15;10.00;99.90
16964;DHT22;8598;50.508;10.436;2023-04-16T10:26:43;10.20;99.90
16964;DHT22;8598;50.508;10.436;2023-04-16T10:29:11;10.20;99.90
16964;DHT22;8598;50.508;10.436;2023-04-16T10:31:38;10.10;99.90
16964;DHT22;8598;50.508;10.436;2023-04-16T10:34:06;10.00;99.90
16964;DHT22;8598;50.508;10.436;2023-04-16T10:36:35;10.00;99.90
16964;DHT22;8598;50.508;10.436;2023-04-16T10:39:03;10.00;99.90
16964;DHT22;8598;50.508;10.436;2023-04-16T10:41:32;10.00;99.90
16964;DHT22;8598;50.508;10.436;2023-04-16T10:44:06;10.10;99.90
16964;DHT22;8598;50.508;10.436;2023-04-16T10:46:36;10.10;99.90
16964;DHT22;8598;50.508;10.436;2023-04-16T10:49:12;10.10;99.90
16964;DHT22;8598;50.508;10.436;2023-04-16T10:51:38;10.20;99.90
16964;DHT22;8598;50.508;10.436;2023-04-16T10:54:19;10.10;99.90
16964;DHT22;8598;50.508;10.436;2023-04-16T10:56:49;10.20;99.90
16964;DHT22;8598;50.508;10.436;2023-04-16T10:59:17;10.10;99.90
16964;DHT22;8598;50.508;10.436;2023-04-16T11:01:45;10.10;99.90
16964;DHT22;8598;50.508;10.436;2023-04-16T11:04:32;10.00;99.90
16964;DHT22;8598;50.508;10.436;2023-04-16T11:07:01;9.90;99.90
16964;DHT22;8598;50.508;10.436;2023-04-16T11:09:51;9.90;99.90
16964;DHT22;8598;50.508;10.436;2023-04-16T11:12:20;9.80;99.90
16964;DHT22;8598;50.508;10.436;2023-04-16T11:14:48;9.80;99.90
16964;DHT22;8598;50.508;10.436;2023-04-16T11:17:15;9.70;99.90
16964;DHT22;8598;50.508;10.436;2023-04-16T11:19:42;9.70;99.90
16964;DHT22;8598;50.508;10.436;2023-04-16T11:22:11;9.70;99.90
16964;DHT22;8598;50.508;10.436;2023-04-16T11:24:39;9.70;99.90
16964;DHT22;8598;50.508;10.436;2023-04-16T11:27:06;9.70;99.90
16964;DHT22;8598;50.508;10.436;2023-04-16T11:29:34;9.70;99.90
16964;DHT22;8598;50.508;10.436;2023-04-16T11:32:01;10.00;99.90
16964;DHT22;8598;50.508;10.436;2023-04-16T11:34:27;10.00;99.90
16964;DHT22;8598;50.508;10.436;2023-04-16T11:36:54;10.00;99.90
16964;DHT22;8598;50.508;10.436;2023-04-16T11:39:22;10.30;99.90
16964;DHT22;8598;50.508;10.436;2023-04-16T11:41:49;10.10;99.90
16964;DHT22;8598;50.508;10.436;2023-04-16T11:44:21;10.10;99.90
16964;DHT22;8598;50.508;10.436;2023-04-16T11:46:50;10.20;99.90
16964;DHT22;8598;50.508;10.436;2023-04-16T11:49:23;10.30;99.90
16964;DHT22;8598;50.508;10.436;2023-04-16T11:51:51;10.10;99.90
16964;DHT22;8598;50.508;10.436;2023-04-16T11:54:20;10.00;99.90
16964;DHT22;8598;50.508;10.436;2023-04-16T11:56:48;9.80;99.90
16964;DHT22;8598;50.508;10.436;2023-04-16T11:59:15;9.80;99.90
16964;DHT22;8598;50.508;10.436;2023-04-16T12:01:45;9.80;99.90
16964;DHT22;8598;50.508;10.436;2023-04-16T12:04:14;9.90;99.90
16964;DHT22;8598;50.508;10.436;2023-04-16T12:07:04;9.80;99.90
16964;DHT22;8598;50.508;10.436;2023-04-16T12:09:31;9.80;99.90
16964;DHT22;8598;50.508;10.436;2023-04-16T12:11:59;9.90;99.90
16964;DHT22;8598;50.508;10.436;2023-04-16T12:14:26;9.90;99.90
16964;DHT22;8598;50.508;10.436;2023-04-16T12:16:53;9.70;99.90
16964;DHT22;8598;50.508;10.436;2023-04-16T12:19:21;9.80;99.90
16964;DHT22;8598;50.508;10.436;2023-04-16T12:21:48;9.80;99.90
16964;DHT22;8598;50.508;10.436;2023-04-16T12:24:16;9.60;99.90
16964;DHT22;8598;50.508;10.436;2023-04-16T12:26:46;9.50;99.90
16964;DHT22;8598;50.508;10.436;2023-04-16T12:29:14;9.40;99.90
16964;DHT22;8598;50.508;10.436;2023-04-16T12:31:41;9.30;99.90
16964;DHT22;8598;50.508;10.436;2023-04-16T12:34:08;9.40;99.90
16964;DHT22;8598;50.508;10.436;2023-04-16T12:36:37;9.40;99.90
16964;DHT22;8598;50.508;10.436;2023-04-16T12:39:03;9.40;99.90
16964;DHT22;8598;50.508;10.436;2023-04-16T12:41:30;9.50;99.90
16964;DHT22;8598;50.508;10.436;2023-04-16T12:44:04;9.60;99.90
16964;DHT22;8598;50.508;10.436;2023-04-16T12:46:31;9.50;99.90
16964;DHT22;8598;50.508;10.436;2023-04-16T12:48:58;9.20;99.90
16964;DHT22;8598;50.508;10.436;2023-04-16T12:51:25;9.20;99.90
16964;DHT22;8598;50.508;10.436;2023-04-16T12:53:53;9.20;99.90
16964;DHT22;8598;50.508;10.436;2023-04-16T12:56:20;9.10;99.90
16964;DHT22;8598;50.508;10.436;2023-04-16T12:58:47;9.10;99.90
16964;DHT22;8598;50.508;10.436;2023-04-16T13:01:16;9.10;99.90
16964;DHT22;8598;50.508;10.436;2023-04-16T13:03:43;9.10;99.90
16964;DHT22;8598;50.508;10.436;2023-04-16T13:06:09;9.10;99.90
16964;DHT22;8598;50.508;10.436;2023-04-16T13:08:36;9.10;99.90
16964;DHT22;8598;50.508;10.436;2023-04-16T13:11:04;9.00;99.90
16964;DHT22;8598;50.508;10.436;2023-04-16T13:13:31;8.90;99.90
16964;DHT22;8598;50.508;10.436;2023-04-16T13:15:58;8.90;99.90
16964;DHT22;8598;50.508;10.436;2023-04-16T13:18:25;8.90;99.90
16964;DHT22;8598;50.508;10.436;2023-04-16T13:20:52;8.90;99.90
16964;DHT22;8598;50.508;10.436;2023-04-16T13:23:19;8.90;99.90
16964;DHT22;8598;50.508;10.436;2023-04-16T13:25:45;8.80;99.90
16964;DHT22;8598;50.508;10.436;2023-04-16T13:28:13;8.80;99.90
16964;DHT22;8598;50.508;10.436;2023-04-16T13:30:40;8.90;99.90
16964;DHT22;8598;50.508;10.436;2023-04-16T13:33:07;8.90;99.90
16964;DHT22;8598;50.508;10.436;2023-04-16T13:35:34;8.90;99.90
16964;DHT22;8598;50.508;10.436;2023-04-16T13:38:01;8.80;99.90
16964;DHT22;8598;50.508;10.436;2023-04-16T13:40:27;8.90;99.90
16964;DHT22;8598;50.508;10.436;2023-04-16T13:42:54;9.00;99.90
16964;DHT22;8598;50.508;10.436;2023-04-16T13:45:22;9.00;99.90
16964;DHT22;8598;50.508;10.436;2023-04-16T13:47:49;9.00;99.90
16964;DHT22;8598;50.508;10.436;2023-04-16T13:50:15;9.00;99.90
16964;DHT22;8598;50.508;10.436;2023-04-16T13:52:42;9.00;99.90
16964;DHT22;8598;50.508;10.436;2023-04-16T13:55:09;9.00;99.90
16964;DHT22;8598;50.508;10.436;2023-04-16T13:57:38;8.90;99.90
16964;DHT22;8598;50.508;10.436;2023-04-16T14:00:06;9.00;99.90
16964;DHT22;8598;50.508;10.436;2023-04-16T14:02:35;8.90;99.90
16964;DHT22;8598;50.508;10.436;2023-04-16T14:05:02;8.90;99.90
16964;DHT22;8598;50.508;10.436;2023-04-16T14:07:28;8.90;99.90
16964;DHT22;8598;50.508;10.436;2023-04-16T14:09:56;8.90;99.90
16964;DHT22;8598;50.508;10.436;2023-04-16T14:12:23;9.00;99.90
16964;DHT22;8598;50.508;10.436;2023-04-16T14:14:50;8.90;99.90
16964;DHT22;8598;50.508;10.436;2023-04-16T14:17:16;8.90;99.90
16964;DHT22;8598;50.508;10.436;2023-04-16T14:19:44;8.80;99.90
16964;DHT22;8598;50.508;10.436;2023-04-16T14:22:11;8.70;99.90
16964;DHT22;8598;50.508;10.436;2023-04-16T14:24:42;8.70;99.90
16964;DHT22;8598;50.508;10.436;2023-04-16T14:27:08;8.70;99.90
16964;DHT22;8598;50.508;10.436;2023-04-16T14:29:35;8.70;99.90
16964;DHT22;8598;50.508;10.436;2023-04-16T14:32:03;8.70;99.90
16964;DHT22;8598;50.508;10.436;2023-04-16T14:34:30;8.80;99.90
16964;DHT22;8598;50.508;10.436;2023-04-16T14:36:58;8.80;99.90
16964;DHT22;8598;50.508;10.436;2023-04-16T14:39:24;8.80;99.90
16964;DHT22;8598;50.508;10.436;2023-04-16T14:41:51;9.00;99.90
16964;DHT22;8598;50.508;10.436;2023-04-16T14:44:18;9.00;99.90
16964;DHT22;8598;50.508;10.436;2023-04-16T14:46:44;9.00;99.90
16964;DHT22;8598;50.508;10.436;2023-04-16T14:49:11;9.10;99.90
16964;DHT22;8598;50.508;10.436;2023-04-16T14:51:38;9.00;99.90
16964;DHT22;8598;50.508;10.436;2023-04-16T14:54:06;9.10;99.90
16964;DHT22;8598;50.508;10.436;2023-04-16T14:56:33;9.10;99.90
16964;DHT22;8598;50.508;10.436;2023-04-16T14:59:00;9.10;99.90
16964;DHT22;8598;50.508;10.436;2023-04-16T15:01:26;9.10;99.90
16964;DHT22;8598;50.508;10.436;2023-04-16T15:03:53;8.90;99.90
16964;DHT22;8598;50.508;10.436;2023-04-16T15:06:20;8.90;99.90
16964;DHT22;8598;50.508;10.436;2023-04-16T15:08:47;8.90;99.90
16964;DHT22;8598;50.508;10.436;2023-04-16T15:11:15;8.90;99.90
16964;DHT22;8598;50.508;10.436;2023-04-16T15:13:42;8.70;99.90
16964;DHT22;8598;50.508;10.436;2023-04-16T15:16:08;8.60;99.90
16964;DHT22;8598;50.508;10.436;2023-04-16T15:18:35;8.60;99.90
16964;DHT22;8598;50.508;10.436;2023-04-16T15:21:02;8.60;99.90
16964;DHT22;8598;50.508;10.436;2023-04-16T15:23:29;8.60;99.90
16964;DHT22;8598;50.508;10.436;2023-04-16T15:25:56;8.60;99.90
16964;DHT22;8598;50.508;10.436;2023-04-16T15:28:24;8.60;99.90
16964;DHT22;8598;50.508;10.436;2023-04-16T15:30:51;8.60;99.90
16964;DHT22;8598;50.508;10.436;2023-04-16T15:33:19;8.60;99.90
16964;DHT22;8598;50.508;10.436;2023-04-16T15:35:46;8.70;99.90
16964;DHT22;8598;50.508;10.436;2023-04-16T15:38:13;8.70;99.90
16964;DHT22;8598;50.508;10.436;2023-04-16T15:40:40;8.80;99.90
16964;DHT22;8598;50.508;10.436;2023-04-16T15:43:06;8.80;99.90
16964;DHT22;8598;50.508;10.436;2023-04-16T15:45:34;8.80;99.90